createdAt,value
2024-02-13T00:26:01.419Z,100
2024-02-13T00:36:03.115Z,100
2024-02-13T00:46:04.987Z,100
2024-02-13T01:06:07.995Z,100
2024-02-13T01:16:09.446Z,100
2024-02-13T01:36:12.708Z,100
2024-02-13T02:46:23.691Z,100
2024-02-13T03:16:28.605Z,100
2024-02-13T03:29:17.963Z,100
2024-02-13T03:46:51.724Z,100
2024-02-13T04:36:59.165Z,100
2024-02-13T05:07:04.161Z,100
2024-02-13T05:27:07.362Z,100
2024-02-13T05:47:11.152Z,100
2024-02-13T06:27:16.663Z,100
2024-02-13T06:37:18.921Z,100
2024-02-13T06:57:21.212Z,100
2024-02-13T07:17:23.814Z,100
2024-02-13T07:57:31.160Z,100
2024-02-13T08:17:34.727Z,100
2024-02-13T08:47:39.989Z,100
2024-02-13T08:57:41.544Z,100
2024-02-13T09:47:49.156Z,100
2024-02-13T10:27:55.901Z,97
2024-02-13T10:47:59.283Z,95
2024-02-13T11:08:01.920Z,91
2024-02-13T11:28:05.528Z,89
2024-02-13T11:38:07.797Z,88
2024-02-13T11:48:08.766Z,88
2024-02-13T11:58:10.237Z,86
2024-02-13T12:08:12.078Z,86
2024-02-13T12:18:13.682Z,85
2024-02-13T12:48:18.159Z,80
2024-02-13T12:58:19.890Z,76
2024-02-13T13:08:21.136Z,75
2024-02-13T13:38:25.472Z,73
2024-02-13T13:48:27.606Z,72
2024-02-13T14:38:35.635Z,68
2024-02-13T15:18:41.362Z,68
2024-02-13T15:28:42.614Z,68
2024-02-13T15:38:44.071Z,69
2024-02-13T15:48:45.737Z,70
2024-02-13T15:58:46.998Z,68
2024-02-13T16:18:50.052Z,69
2024-02-13T16:48:55.366Z,70
2024-02-13T16:58:56.991Z,70
2024-02-13T17:19:00.349Z,72
2024-02-13T17:29:01.738Z,73
2024-02-13T18:29:10.785Z,79
2024-02-13T18:39:12.594Z,81
2024-02-13T18:49:14.224Z,83
2024-02-13T18:59:15.463Z,84
2024-02-13T19:09:17.628Z,86
2024-02-13T19:19:18.496Z,88
2024-02-13T19:39:21.579Z,91
2024-02-13T20:39:31.049Z,96
2024-02-13T21:09:35.789Z,97
2024-02-13T21:19:37.164Z,97
2024-02-13T21:39:39.234Z,96
2024-02-13T21:49:41.040Z,96
2024-02-13T22:19:45.122Z,94
2024-02-13T22:49:49.581Z,94
2024-02-13T22:59:51.070Z,94
2024-02-13T23:09:52.291Z,93
2024-02-13T23:19:53.478Z,92
2024-02-13T23:29:55.267Z,94
2024-02-13T23:39:56.857Z,95
2024-02-13T23:49:58.408Z,97
